Time;durP1;ratioP1;P1;durP2;ratioP2;P2;SDS_P1;SDS_P2;PMS_P1;PMS_P2;Temp;Humidity;BMP_temperature;BMP_pressure;BME280_temperature;BME280_humidity;BME280_pressure;Samples;Min_cycle;Max_cycle;Signal;HPM_P1;HPM_P2
2022/04/16 00:00:00;;;;;;;;;;;17.10;83.20;17.20;100026.00;;;;338872;28;95283;-87
2022/04/16 00:00:12;;;;;;;;;;;17.10;83.20;17.20;100025.00;;;;341398;28;91085;-87
2022/04/16 00:00:27;;;;;;;;;;;17.10;83.20;17.20;100025.00;;;;341703;28;93226;-87
2022/04/16 00:00:39;;;;;;;;;;;17.10;83.20;17.20;100029.00;;;;337514;28;91772;-88
2022/04/16 00:00:52;;;;;;;;;;;17.10;83.30;17.20;100022.00;;;;337570;28;94811;-87
2022/04/16 00:01:05;;;;;;;;;;;17.10;83.40;17.20;100022.00;;;;340102;28;91088;-88
2022/04/16 00:01:17;;;;;;;;;;;17.10;83.70;17.20;100023.00;;;;338431;28;92469;-87
2022/04/16 00:01:29;;;;;;;;;;;17.10;83.70;17.20;100015.00;;;;339825;28;92154;-87
2022/04/16 00:01:42;;;;;;;;;;;17.10;83.60;17.20;100030.00;;;;337603;28;93635;-87
2022/04/16 00:01:55;;;;;;;;;;;17.10;83.50;17.10;100014.00;;;;338504;28;90541;-87
2022/04/16 00:02:07;;;;;;;;;;;17.10;83.50;17.10;100025.00;;;;338816;28;96327;-87
2022/04/16 00:02:19;;;;;;;;;;;17.10;83.50;17.20;100020.00;;;;339468;28;91368;-87
2022/04/16 00:02:31;;;;;;;;;;;17.10;83.50;17.20;100020.00;;;;338944;28;95773;-87
2022/04/16 00:02:45;;;;;;;;;;;17.00;83.30;17.20;100022.00;;;;339978;28;92045;-87
2022/04/16 00:02:56;;;;;;;;;;;17.10;83.60;17.10;100019.00;;;;340302;28;96043;-87
2022/04/16 00:03:11;;;;;;;;;;;17.00;83.40;17.20;100018.00;;;;338635;28;92068;-87
2022/04/16 00:03:23;;;;;;;;;;;17.00;83.50;17.20;100024.00;;;;338868;28;95765;-87
2022/04/16 00:03:35;;;;;;;;;;;17.00;83.60;17.20;100036.00;;;;340155;28;91082;-87
2022/04/16 00:03:47;;;;;;;;;;;17.00;83.60;17.20;100022.00;;;;338924;28;93487;-87
2022/04/16 00:03:58;;;;;;;;;;;17.00;83.60;17.10;100027.00;;;;338692;28;91269;-87
2022/04/16 00:04:10;;;;;;;;;;;17.00;83.70;17.10;100020.00;;;;338961;28;94879;-87
2022/04/16 00:04:22;;;;;;;;;;;17.00;83.70;17.10;100021.00;;;;342385;28;92097;-87
2022/04/16 00:04:34;;;;;;;;;;;17.00;83.80;17.10;100014.00;;;;345269;28;96544;-87
2022/04/16 00:04:46;;;;;;;;;;;17.00;83.70;17.10;100019.00;;;;341842;28;92589;-87
2022/04/16 00:04:57;;;;;;;;;;;17.00;83.90;17.10;100021.00;;;;337577;28;95626;-87
2022/04/16 00:05:09;;;;;;;;;;;17.00;83.90;17.10;100021.00;;;;337473;28;91872;-87
2022/04/16 00:05:23;;;;;;;;;;;17.00;83.70;17.10;100014.00;;;;340063;28;95733;-87
2022/04/16 00:05:35;;;;;;;;;;;17.00;83.70;17.10;100023.00;;;;341348;28;92000;-87
2022/04/16 00:05:51;;;;;;;;;;;17.00;83.70;17.10;100027.00;;;;341588;28;93896;-87
2022/04/16 00:06:03;;;;;;;;;;;17.00;83.70;17.10;100020.00;;;;341264;28;91493;-87
2022/04/16 00:06:15;;;;;;;;;;;17.00;83.80;17.10;100025.00;;;;340186;28;96063;-87
2022/04/16 00:06:27;;;;;;;;;;;17.00;83.90;17.10;100022.00;;;;346230;27;91406;-87
2022/04/16 00:06:39;;;;;;;;;;;16.90;83.80;17.20;100024.00;;;;348671;27;93622;-87
2022/04/16 00:06:51;;;;;;;;;;;17.00;83.80;17.10;100017.00;;;;348425;27;91940;-87
2022/04/16 00:07:03;;;;;;;;;;;17.00;83.90;17.10;100024.00;;;;347232;28;95233;-87
2022/04/16 00:07:14;;;;;;;;;;;17.00;83.80;17.20;100019.00;;;;347172;27;92387;-87
2022/04/16 00:07:26;;;;;;;;;;;17.00;83.90;17.10;100012.00;;;;347056;28;94586;-87
2022/04/16 00:07:38;;;;;;;;;;;17.00;84.00;17.10;100018.00;;;;344215;28;92085;-87
2022/04/16 00:08:06;;;;;;;;;;;17.00;83.90;17.20;100022.00;;;;345434;28;93607;-87
2022/04/16 00:08:19;;;;;;;;;;;16.90;83.70;17.20;100023.00;;;;345578;28;91318;-87
2022/04/16 00:08:31;;;;;;;;;;;17.00;83.90;17.10;100020.00;;;;344533;28;95034;-86
2022/04/16 00:08:43;;;;;;;;;;;16.90;83.90;17.10;100017.00;;;;345657;28;91974;-87
2022/04/16 00:08:54;;;;;;;;;;;17.00;84.00;17.20;100015.00;;;;345797;28;96526;-87
2022/04/16 00:09:06;;;;;;;;;;;17.00;83.90;17.20;100016.00;;;;347067;28;92014;-87
2022/04/16 00:09:18;;;;;;;;;;;17.00;83.80;17.10;100011.00;;;;345823;28;96428;-87
2022/04/16 00:09:30;;;;;;;;;;;17.00;83.80;17.10;100016.00;;;;347053;28;91971;-87
2022/04/16 00:09:42;;;;;;;;;;;17.00;83.80;17.10;100009.00;;;;347185;28;96683;-87
2022/04/16 00:09:54;;;;;;;;;;;16.90;83.70;17.10;100011.00;;;;345687;28;92047;-87
2022/04/16 00:10:07;;;;;;;;;;;17.00;83.80;17.10;100015.00;;;;346854;28;91935;-87
2022/04/16 00:10:19;;;;;;;;;;;17.00;83.90;17.10;100017.00;;;;347141;27;91502;-87
2022/04/16 00:10:32;;;;;;;;;;;17.00;83.90;17.10;100028.00;;;;347210;28;93888;-87
2022/04/16 00:10:43;;;;;;;;;;;17.00;83.80;17.10;100022.00;;;;346863;27;92082;-87
2022/04/16 00:10:55;;;;;;;;;;;16.90;83.70;17.10;100018.00;;;;345890;28;95585;-87
2022/04/16 00:11:07;;;;;;;;;;;16.90;83.70;17.10;100016.00;;;;351166;27;92023;-87
2022/04/16 00:11:19;;;;;;;;;;;17.00;83.70;17.10;100015.00;;;;347566;27;95898;-88
2022/04/16 00:11:31;;;;;;;;;;;16.90;83.70;17.10;100017.00;;;;347104;28;91210;-87
2022/04/16 00:11:43;;;;;;;;;;;17.00;84.20;17.10;100020.00;;;;345949;28;94625;-87
2022/04/16 00:11:54;;;;;;;;;;;17.00;83.90;17.10;100020.00;;;;345606;28;91954;-87
2022/04/16 00:12:07;;;;;;;;;;;16.90;83.80;17.10;100018.00;;;;346985;28;94912;-87
2022/04/16 00:12:18;;;;;;;;;;;16.90;83.90;17.10;100018.00;;;;347045;28;91278;-87
2022/04/16 00:12:30;;;;;;;;;;;16.90;83.90;17.10;100014.00;;;;345929;28;93175;-87
2022/04/16 00:12:43;;;;;;;;;;;17.00;83.90;17.20;100011.00;;;;346914;28;92017;-87
2022/04/16 00:12:54;;;;;;;;;;;17.00;83.90;17.10;100008.00;;;;345827;28;95614;-87
2022/04/16 00:13:06;;;;;;;;;;;16.90;83.90;17.10;100018.00;;;;345505;28;91984;-87
2022/04/16 00:13:19;;;;;;;;;;;16.90;83.90;17.10;100021.00;;;;346771;28;96313;-87
2022/04/16 00:13:32;;;;;;;;;;;16.90;83.70;17.00;100015.00;;;;348396;27;91972;-87
2022/04/16 00:13:46;;;;;;;;;;;16.90;83.70;17.00;100021.00;;;;349738;27;95095;-87
2022/04/16 00:13:58;;;;;;;;;;;16.90;83.80;17.10;100024.00;;;;349698;27;91146;-87
2022/04/16 00:14:10;;;;;;;;;;;16.90;84.00;17.10;100020.00;;;;348628;27;94590;-87
2022/04/16 00:14:23;;;;;;;;;;;16.90;83.90;17.00;100024.00;;;;345501;28;91351;-87
2022/04/16 00:14:36;;;;;;;;;;;16.90;83.70;17.00;100023.00;;;;345870;28;95296;-87
2022/04/16 00:14:49;;;;;;;;;;;16.90;83.80;17.00;100026.00;;;;348468;27;91901;-87
2022/04/16 00:15:01;;;;;;;;;;;16.90;83.90;17.00;100020.00;;;;345847;28;95841;-87
2022/04/16 00:15:13;;;;;;;;;;;16.90;83.90;17.00;100017.00;;;;348355;27;92051;-87
2022/04/16 00:15:26;;;;;;;;;;;16.90;83.90;17.00;100019.00;;;;345794;28;94918;-87
2022/04/16 00:15:38;;;;;;;;;;;16.90;84.10;17.00;100018.00;;;;344177;28;92022;-87
2022/04/16 00:15:52;;;;;;;;;;;16.90;84.10;17.10;100017.00;;;;347248;28;96346;-87
2022/04/16 00:16:04;;;;;;;;;;;16.90;84.10;17.00;100019.00;;;;346831;28;92136;-87
2022/04/16 00:16:17;;;;;;;;;;;16.90;84.00;17.00;100023.00;;;;344046;28;94647;-87
2022/04/16 00:16:29;;;;;;;;;;;16.90;84.00;17.00;100016.00;;;;346946;28;91252;-87
2022/04/16 00:16:42;;;;;;;;;;;16.90;83.90;17.00;100026.00;;;;348612;27;92439;-87
2022/04/16 00:16:53;;;;;;;;;;;16.90;84.50;16.90;100020.00;;;;347078;28;91956;-87
2022/04/16 00:17:06;;;;;;;;;;;16.80;83.90;16.90;100014.00;;;;347220;28;95701;-87
2022/04/16 00:17:17;;;;;;;;;;;16.80;84.00;16.90;100020.00;;;;343603;28;91143;-87
2022/04/16 00:17:29;;;;;;;;;;;16.80;84.00;16.90;100022.00;;;;345872;28;93105;-87
2022/04/16 00:17:41;;;;;;;;;;;16.80;84.10;16.90;100022.00;;;;346977;28;91923;-87
2022/04/16 00:17:54;;;;;;;;;;;16.80;84.00;16.90;100024.00;;;;345992;28;93546;-87
2022/04/16 00:18:06;;;;;;;;;;;16.80;83.90;17.00;100015.00;;;;345483;28;92080;-87
2022/04/16 00:18:19;;;;;;;;;;;16.80;84.10;17.00;100018.00;;;;348586;27;93311;-87
2022/04/16 00:18:30;;;;;;;;;;;16.80;84.10;16.90;100018.00;;;;345483;28;91333;-87
2022/04/16 00:18:42;;;;;;;;;;;16.80;84.00;17.00;100018.00;;;;347229;27;94820;-87
2022/04/16 00:18:56;;;;;;;;;;;16.80;84.00;17.00;100009.00;;;;346989;28;92479;-87
2022/04/16 00:19:09;;;;;;;;;;;16.80;84.00;16.90;100015.00;;;;344496;28;94962;-87
2022/04/16 00:19:23;;;;;;;;;;;16.80;84.00;16.90;100019.00;;;;347977;27;92764;-87
2022/04/16 00:19:36;;;;;;;;;;;16.80;84.00;16.90;100024.00;;;;347278;28;95834;-87
2022/04/16 00:19:48;;;;;;;;;;;16.80;84.00;17.00;100022.00;;;;346564;28;92110;-87
2022/04/16 00:20:02;;;;;;;;;;;16.80;84.10;16.90;100029.00;;;;347217;28;93589;-86
2022/04/16 00:20:13;;;;;;;;;;;16.80;84.10;16.90;100017.00;;;;345586;28;92083;-87
2022/04/16 00:20:27;;;;;;;;;;;16.80;84.10;16.90;100013.00;;;;345904;28;95818;-87
2022/04/16 00:20:40;;;;;;;;;;;16.80;84.10;16.90;100018.00;;;;349726;27;91353;-87
2022/04/16 00:20:52;;;;;;;;;;;16.80;84.20;17.00;100016.00;;;;345898;28;94660;-87
2022/04/16 00:21:06;;;;;;;;;;;16.80;84.10;17.00;100015.00;;;;348338;27;91950;-87
2022/04/16 00:21:20;;;;;;;;;;;16.80;84.20;17.00;100009.00;;;;348433;27;95726;-86
2022/04/16 00:21:35;;;;;;;;;;;16.80;84.30;16.90;100023.00;;;;346966;28;92001;-87
2022/04/16 00:21:47;;;;;;;;;;;16.80;84.30;17.00;100015.00;;;;348529;27;92590;-86
2022/04/16 00:22:00;;;;;;;;;;;16.80;84.20;17.00;100010.00;;;;345712;28;91757;-87
2022/04/16 00:22:12;;;;;;;;;;;16.80;84.10;16.90;100015.00;;;;346833;28;96431;-87
2022/04/16 00:22:24;;;;;;;;;;;16.80;84.10;17.00;100017.00;;;;347228;27;92082;-87
2022/04/16 00:22:36;;;;;;;;;;;16.80;84.00;16.90;100013.00;;;;347327;28;93455;-87
2022/04/16 00:22:48;;;;;;;;;;;16.80;84.00;17.00;100016.00;;;;346019;28;91373;-87
2022/04/16 00:23:00;;;;;;;;;;;16.80;84.00;17.00;100013.00;;;;345865;28;95121;-87
2022/04/16 00:23:11;;;;;;;;;;;16.80;84.00;17.00;100015.00;;;;345548;28;92102;-86
2022/04/16 00:23:26;;;;;;;;;;;16.80;84.10;16.90;100016.00;;;;344527;28;93034;-87
2022/04/16 00:23:40;;;;;;;;;;;16.80;84.10;16.90;100018.00;;;;345740;28;91870;-87
2022/04/16 00:23:53;;;;;;;;;;;16.80;84.10;16.90;100015.00;;;;346262;28;93536;-87
2022/04/16 00:24:06;;;;;;;;;;;16.80;84.00;16.90;100010.00;;;;346829;28;92081;-87
2022/04/16 00:24:17;;;;;;;;;;;16.80;84.00;16.90;100020.00;;;;347303;28;96290;-87
2022/04/16 00:24:29;;;;;;;;;;;16.80;84.10;16.90;100014.00;;;;347105;28;90978;-87
2022/04/16 00:24:42;;;;;;;;;;;16.80;84.10;17.00;100016.00;;;;345900;28;93153;-87
2022/04/16 00:24:53;;;;;;;;;;;16.80;84.00;16.90;100013.00;;;;345676;28;91234;-87
2022/04/16 00:25:06;;;;;;;;;;;16.80;84.10;16.90;100017.00;;;;347362;28;94958;-87
2022/04/16 00:25:19;;;;;;;;;;;16.80;84.10;16.90;100011.00;;;;348369;27;94988;-87
2022/04/16 00:25:33;;;;;;;;;;;16.80;84.00;16.90;100017.00;;;;345199;28;95718;-87
2022/04/16 00:25:45;;;;;;;;;;;16.80;84.10;16.90;100019.00;;;;348399;27;91131;-87
2022/04/16 00:25:58;;;;;;;;;;;16.80;84.30;16.90;100014.00;;;;348756;27;96200;-86
2022/04/16 00:26:12;;;;;;;;;;;16.80;84.10;16.90;100009.00;;;;345583;28;91910;-87
2022/04/16 00:26:23;;;;;;;;;;;16.80;84.40;16.90;100010.00;;;;344562;28;95768;-87
2022/04/16 00:26:40;;;;;;;;;;;16.80;84.30;16.90;100010.00;;;;345762;28;91111;-87
2022/04/16 00:26:52;;;;;;;;;;;16.70;84.10;16.90;100006.00;;;;343246;28;94632;-87
2022/04/16 00:27:04;;;;;;;;;;;16.80;84.20;16.90;100008.00;;;;345783;28;90474;-87
2022/04/16 00:27:16;;;;;;;;;;;16.80;84.20;16.90;100010.00;;;;345960;28;93027;-87
2022/04/16 00:27:28;;;;;;;;;;;16.80;84.10;16.90;100017.00;;;;347107;28;91986;-87
2022/04/16 00:27:40;;;;;;;;;;;16.80;84.10;16.90;100016.00;;;;347629;28;92256;-87
2022/04/16 00:27:52;;;;;;;;;;;16.80;84.10;16.90;100014.00;;;;346998;27;92461;-87
2022/04/16 00:28:04;;;;;;;;;;;16.80;84.20;16.80;100005.00;;;;348853;27;93444;-87
2022/04/16 00:28:16;;;;;;;;;;;16.70;84.10;16.90;100010.00;;;;345553;28;91397;-87
2022/04/16 00:28:28;;;;;;;;;;;16.70;84.10;16.80;100011.00;;;;347904;27;94525;-87
2022/04/16 00:28:39;;;;;;;;;;;16.70;84.50;16.80;100001.00;;;;348859;27;91994;-87
2022/04/16 00:28:51;;;;;;;;;;;16.70;84.50;16.80;99994.00;;;;344839;28;95501;-87
2022/04/16 00:29:03;;;;;;;;;;;16.70;84.30;16.80;100005.00;;;;347542;28;91132;-87
2022/04/16 00:29:15;;;;;;;;;;;16.70;84.30;16.90;100006.00;;;;347862;27;94811;-87
2022/04/16 00:29:27;;;;;;;;;;;16.70;84.30;16.80;100004.00;;;;348764;27;91164;-87
2022/04/16 00:29:39;;;;;;;;;;;16.70;84.20;16.90;100005.00;;;;350441;27;93452;-87
2022/04/16 00:29:50;;;;;;;;;;;16.70;84.20;16.90;100008.00;;;;344585;28;91162;-87
2022/04/16 00:30:04;;;;;;;;;;;16.70;84.20;16.90;100006.00;;;;344825;28;95020;-87
2022/04/16 00:30:17;;;;;;;;;;;16.70;84.20;16.90;100005.00;;;;345952;28;91190;-87
2022/04/16 00:30:30;;;;;;;;;;;16.70;84.20;16.80;100005.00;;;;347722;28;94777;-87
2022/04/16 00:30:42;;;;;;;;;;;16.70;84.20;16.80;100004.00;;;;344643;28;92317;-87
2022/04/16 00:30:55;;;;;;;;;;;16.70;84.20;16.80;100004.00;;;;347443;28;93596;-87
2022/04/16 00:31:07;;;;;;;;;;;16.70;84.30;16.80;100000.00;;;;348692;27;91193;-86
2022/04/16 00:31:20;;;;;;;;;;;16.70;84.30;16.90;99997.00;;;;347215;27;95979;-87
2022/04/16 00:31:32;;;;;;;;;;;16.70;84.30;16.80;99999.00;;;;347068;28;92111;-87
2022/04/16 00:31:47;;;;;;;;;;;16.70;84.20;16.80;100011.00;;;;347306;28;95733;-87
2022/04/16 00:31:59;;;;;;;;;;;16.70;84.20;16.80;100004.00;;;;345683;28;91893;-87
2022/04/16 00:32:10;;;;;;;;;;;16.70;84.10;16.80;99998.00;;;;347387;28;93035;-87
2022/04/16 00:32:22;;;;;;;;;;;16.70;84.10;16.80;99996.00;;;;345638;28;92181;-87
2022/04/16 00:32:34;;;;;;;;;;;16.70;84.20;16.80;99999.00;;;;346046;28;95748;-87
2022/04/16 00:32:46;;;;;;;;;;;16.70;84.20;16.80;99998.00;;;;347321;28;91588;-87
2022/04/16 00:33:02;;;;;;;;;;;16.70;84.30;16.80;99994.00;;;;347676;28;95788;-87
2022/04/16 00:33:14;;;;;;;;;;;16.70;84.20;16.80;100000.00;;;;347414;28;90461;-87
2022/04/16 00:33:26;;;;;;;;;;;16.60;84.20;16.80;99988.00;;;;346276;28;94516;-87
2022/04/16 00:33:38;;;;;;;;;;;16.60;84.30;16.80;100001.00;;;;344767;28;92023;-87
2022/04/16 00:33:50;;;;;;;;;;;16.60;84.30;16.80;100001.00;;;;346285;28;92125;-87
2022/04/16 00:34:02;;;;;;;;;;;16.60;84.30;16.80;99999.00;;;;346051;28;92108;-87
2022/04/16 00:34:14;;;;;;;;;;;16.60;84.50;16.80;100000.00;;;;344588;28;92351;-87
2022/04/16 00:34:26;;;;;;;;;;;16.70;84.50;16.80;99998.00;;;;348357;27;92196;-87
2022/04/16 00:34:38;;;;;;;;;;;16.70;84.40;16.80;99998.00;;;;346110;28;94408;-86
2022/04/16 00:34:50;;;;;;;;;;;16.70;84.50;16.80;100005.00;;;;346034;28;92036;-87
2022/04/16 00:35:02;;;;;;;;;;;16.70;84.40;16.80;100000.00;;;;346385;28;94609;-87
2022/04/16 00:35:15;;;;;;;;;;;16.70;84.40;16.80;99998.00;;;;344552;28;91336;-87
2022/04/16 00:35:27;;;;;;;;;;;16.70;84.40;16.80;100002.00;;;;346349;28;95363;-87
2022/04/16 00:35:42;;;;;;;;;;;16.60;84.30;16.80;99998.00;;;;348858;27;91000;-86
2022/04/16 00:35:53;;;;;;;;;;;16.60;84.30;16.90;99999.00;;;;347735;28;93176;-87
2022/04/16 00:36:05;;;;;;;;;;;16.70;84.40;16.90;100002.00;;;;346069;28;92090;-87
2022/04/16 00:36:17;;;;;;;;;;;16.70;84.30;16.80;99998.00;;;;347461;28;96702;-86
2022/04/16 00:36:29;;;;;;;;;;;16.60;84.40;16.80;100005.00;;;;347296;28;91188;-86
2022/04/16 00:36:44;;;;;;;;;;;16.70;84.60;16.80;99993.00;;;;347579;28;93142;-87
2022/04/16 00:36:56;;;;;;;;;;;16.60;84.40;16.80;100002.00;;;;347544;28;91958;-87
2022/04/16 00:37:08;;;;;;;;;;;16.60;84.50;16.80;99992.00;;;;347538;28;96431;-86
2022/04/16 00:37:20;;;;;;;;;;;16.60;84.70;16.80;100003.00;;;;348317;27;91577;-87
2022/04/16 00:37:32;;;;;;;;;;;16.60;84.60;16.80;100003.00;;;;347731;28;91989;-86
2022/04/16 00:37:43;;;;;;;;;;;16.60;84.60;16.80;100002.00;;;;344881;28;92043;-87
2022/04/16 00:37:55;;;;;;;;;;;16.70;84.60;16.80;99992.00;;;;346473;28;93709;-87
2022/04/16 00:38:07;;;;;;;;;;;16.60;84.50;16.80;99996.00;;;;344467;28;92140;-87
2022/04/16 00:38:19;;;;;;;;;;;16.70;84.40;16.80;99996.00;;;;346118;28;94635;-87
2022/04/16 00:38:30;;;;;;;;;;;16.60;84.30;16.80;99997.00;;;;344488;28;92104;-87
2022/04/16 00:38:42;;;;;;;;;;;16.60;84.30;16.80;99997.00;;;;345800;28;96544;-87
2022/04/16 00:38:54;;;;;;;;;;;16.60;84.40;16.80;99999.00;;;;347394;28;91962;-87
2022/04/16 00:39:06;;;;;;;;;;;16.60;84.50;16.80;100002.00;;;;347773;28;93397;-87
2022/04/16 00:39:17;;;;;;;;;;;16.60;84.50;16.90;100005.00;;;;347295;28;90440;-87
2022/04/16 00:39:29;;;;;;;;;;;16.60;84.50;16.80;99998.00;;;;349143;27;94840;-87
2022/04/16 00:39:41;;;;;;;;;;;16.60;84.60;16.90;99991.00;;;;347464;28;91854;-87
2022/04/16 00:39:53;;;;;;;;;;;16.60;85.20;16.80;99993.00;;;;346260;28;95052;-86
2022/04/16 00:40:06;;;;;;;;;;;16.60;84.50;16.80;100001.00;;;;347303;28;91222;-87
2022/04/16 00:40:18;;;;;;;;;;;16.60;84.40;16.90;100003.00;;;;348459;27;96113;-87
2022/04/16 00:40:29;;;;;;;;;;;16.60;84.50;16.80;99997.00;;;;345828;28;92124;-87
2022/04/16 00:40:41;;;;;;;;;;;16.70;84.40;16.80;100005.00;;;;347273;28;95138;-87
2022/04/16 00:40:53;;;;;;;;;;;16.60;84.60;16.80;99998.00;;;;348647;27;92003;-87
2022/04/16 00:41:05;;;;;;;;;;;16.60;84.50;16.80;100001.00;;;;347581;28;95819;-88
2022/04/16 00:41:17;;;;;;;;;;;16.60;84.60;16.80;99998.00;;;;344636;28;91173;-87
2022/04/16 00:41:28;;;;;;;;;;;16.60;84.50;16.80;99999.00;;;;345027;28;94931;-86
2022/04/16 00:41:40;;;;;;;;;;;16.60;84.50;16.80;100003.00;;;;345218;28;92014;-87
2022/04/16 00:41:52;;;;;;;;;;;16.70;84.50;16.80;100000.00;;;;347288;28;92385;-87
2022/04/16 00:42:04;;;;;;;;;;;16.60;84.40;16.80;100006.00;;;;346930;28;91196;-87
2022/04/16 00:42:16;;;;;;;;;;;16.70;84.50;16.80;100000.00;;;;348725;28;94634;-88
2022/04/16 00:42:32;;;;;;;;;;;16.60;84.60;16.80;100001.00;;;;348392;28;91969;-87
2022/04/16 00:42:44;;;;;;;;;;;16.60;84.40;16.80;100001.00;;;;349830;27;94383;-87
2022/04/16 00:42:58;;;;;;;;;;;16.70;84.50;16.80;99993.00;;;;349982;27;91135;-86
2022/04/16 00:43:27;;;;;;;;;;;16.70;84.40;16.80;99998.00;;;;348714;28;92115;-87
2022/04/16 00:43:39;;;;;;;;;;;16.60;84.40;16.70;99998.00;;;;347261;28;90382;-87
2022/04/16 00:43:53;;;;;;;;;;;16.60;84.40;16.80;99993.00;;;;348809;28;95680;-87
2022/04/16 00:44:06;;;;;;;;;;;16.60;84.40;16.80;99999.00;;;;347109;28;91215;-86
2022/04/16 00:44:19;;;;;;;;;;;16.60;84.40;16.80;100006.00;;;;347354;28;92576;-87
2022/04/16 00:44:31;;;;;;;;;;;16.60;84.40;16.80;100001.00;;;;348713;28;91213;-86
2022/04/16 00:44:43;;;;;;;;;;;16.60;84.50;16.80;99992.00;;;;347687;28;91993;-86
2022/04/16 00:44:55;;;;;;;;;;;16.60;84.70;16.80;99995.00;;;;350097;27;91098;-87
2022/04/16 00:45:07;;;;;;;;;;;16.60;84.70;16.80;99999.00;;;;350327;27;94771;-87
2022/04/16 00:45:19;;;;;;;;;;;16.60;84.50;16.80;100005.00;;;;347054;28;91019;-87
2022/04/16 00:45:31;;;;;;;;;;;16.60;84.60;16.80;99999.00;;;;348958;28;94887;-87
2022/04/16 00:45:43;;;;;;;;;;;16.60;84.50;16.80;100004.00;;;;350127;27;90463;-86
2022/04/16 00:45:55;;;;;;;;;;;16.60;84.50;16.80;100006.00;;;;348903;28;94706;-86
2022/04/16 00:46:07;;;;;;;;;;;16.60;84.40;16.80;99989.00;;;;348664;28;91183;-86
2022/04/16 00:46:19;;;;;;;;;;;16.60;84.50;16.80;100000.00;;;;348448;28;95357;-86
2022/04/16 00:46:32;;;;;;;;;;;16.60;84.50;16.80;100002.00;;;;348609;28;91205;-87
2022/04/16 00:46:43;;;;;;;;;;;16.60;84.40;16.80;100000.00;;;;348331;28;95997;-86
2022/04/16 00:46:55;;;;;;;;;;;16.60;84.40;16.80;99997.00;;;;348560;28;91179;-87
2022/04/16 00:47:07;;;;;;;;;;;16.60;84.50;16.80;100001.00;;;;350417;27;95025;-87
2022/04/16 00:47:19;;;;;;;;;;;16.60;84.40;16.80;100001.00;;;;349656;27;92226;-86
2022/04/16 00:47:30;;;;;;;;;;;16.60;84.50;16.80;99994.00;;;;348863;28;94880;-87
2022/04/16 00:47:42;;;;;;;;;;;16.60;84.40;16.80;100004.00;;;;347395;28;90429;-87
2022/04/16 00:47:54;;;;;;;;;;;16.60;84.50;16.80;99998.00;;;;349104;28;91225;-86
2022/04/16 00:48:07;;;;;;;;;;;16.60;84.60;16.70;99991.00;;;;349963;27;91678;-87
2022/04/16 00:48:19;;;;;;;;;;;16.60;84.60;16.70;100000.00;;;;346092;28;96126;-87
2022/04/16 00:48:31;;;;;;;;;;;16.60;84.40;16.70;100000.00;;;;345851;28;91159;-87
2022/04/16 00:48:43;;;;;;;;;;;16.60;84.40;16.70;100002.00;;;;348960;28;92841;-87
2022/04/16 00:48:55;;;;;;;;;;;16.60;85.10;16.80;99991.00;;;;348835;28;91082;-86
2022/04/16 00:49:06;;;;;;;;;;;16.60;84.40;16.80;99994.00;;;;347636;28;94427;-87
2022/04/16 00:49:18;;;;;;;;;;;16.50;84.40;16.80;100000.00;;;;348009;28;91943;-87
2022/04/16 00:49:30;;;;;;;;;;;16.60;84.50;16.80;99998.00;;;;350205;27;94355;-88
2022/04/16 00:49:42;;;;;;;;;;;16.60;84.50;16.70;99998.00;;;;350031;27;90459;-87
2022/04/16 00:49:55;;;;;;;;;;;16.60;84.50;16.80;100002.00;;;;351848;27;93285;-87
2022/04/16 00:50:10;;;;;;;;;;;16.60;84.40;16.80;99998.00;;;;350088;27;90967;-86
2022/04/16 00:50:22;;;;;;;;;;;16.60;84.70;16.80;100001.00;;;;346049;28;94699;-87
2022/04/16 00:50:33;;;;;;;;;;;16.60;84.60;16.70;99993.00;;;;347262;28;91194;-87
2022/04/16 00:50:47;;;;;;;;;;;16.60;84.50;16.70;100001.00;;;;348863;27;93302;-87
2022/04/16 00:50:59;;;;;;;;;;;16.60;84.50;16.70;100002.00;;;;348703;28;91107;-87
2022/04/16 00:51:11;;;;;;;;;;;16.60;84.50;16.70;99999.00;;;;347435;28;92843;-87
2022/04/16 00:51:23;;;;;;;;;;;16.60;84.50;16.70;100001.00;;;;347061;28;92070;-87
2022/04/16 00:51:36;;;;;;;;;;;16.50;84.50;16.80;99991.00;;;;347362;28;94547;-87
2022/04/16 00:51:47;;;;;;;;;;;16.60;84.50;16.80;99997.00;;;;345902;28;90327;-86
2022/04/16 00:52:01;;;;;;;;;;;16.60;84.70;16.70;100002.00;;;;347502;28;95291;-86
2022/04/16 00:52:13;;;;;;;;;;;16.60;84.60;16.70;100006.00;;;;350702;27;91124;-86
2022/04/16 00:52:24;;;;;;;;;;;16.50;84.50;16.60;99990.00;;;;350089;27;92343;-87
2022/04/16 00:52:37;;;;;;;;;;;16.60;84.60;16.70;99990.00;;;;348652;28;91174;-86
2022/04/16 00:52:49;;;;;;;;;;;16.50;84.50;16.60;99997.00;;;;350428;27;92117;-86
2022/04/16 00:53:00;;;;;;;;;;;16.50;84.50;16.60;99999.00;;;;348867;28;91024;-86
2022/04/16 00:53:12;;;;;;;;;;;16.50;84.50;16.60;99997.00;;;;347640;28;94566;-86
2022/04/16 00:53:30;;;;;;;;;;;16.50;84.50;16.70;100000.00;;;;348629;27;91291;-86
2022/04/16 00:53:41;;;;;;;;;;;16.50;84.70;16.70;99997.00;;;;348953;28;95654;-86
2022/04/16 00:53:53;;;;;;;;;;;16.50;84.80;16.70;100002.00;;;;345996;28;90416;-87
2022/04/16 00:54:05;;;;;;;;;;;16.50;85.00;16.70;99991.00;;;;344766;28;93976;-86
2022/04/16 00:54:18;;;;;;;;;;;16.50;84.90;16.70;99997.00;;;;345837;28;91145;-87
2022/04/16 00:54:29;;;;;;;;;;;16.50;85.00;16.70;99994.00;;;;347527;28;96044;-86
2022/04/16 00:54:41;;;;;;;;;;;16.50;84.80;16.70;99998.00;;;;345838;28;92082;-87
2022/04/16 00:54:55;;;;;;;;;;;16.50;84.80;16.70;100000.00;;;;347474;28;94711;-87
2022/04/16 00:55:08;;;;;;;;;;;16.50;84.90;16.70;99995.00;;;;348543;28;91081;-86
2022/04/16 00:55:20;;;;;;;;;;;16.50;84.80;16.70;99997.00;;;;345820;28;92018;-87
2022/04/16 00:55:34;;;;;;;;;;;16.50;84.80;16.70;99998.00;;;;348506;28;91247;-87
2022/04/16 00:55:46;;;;;;;;;;;16.50;85.00;16.80;99994.00;;;;349496;27;94667;-86
2022/04/16 00:55:58;;;;;;;;;;;16.50;84.90;16.70;99991.00;;;;351454;27;90258;-87
2022/04/16 00:56:12;;;;;;;;;;;16.50;84.80;16.70;99996.00;;;;348929;28;94197;-87
2022/04/16 00:56:24;;;;;;;;;;;16.50;84.90;16.70;99997.00;;;;348788;28;91128;-86
2022/04/16 00:56:36;;;;;;;;;;;16.50;84.80;16.70;99994.00;;;;350407;27;93066;-87
2022/04/16 00:56:48;;;;;;;;;;;16.50;84.70;16.70;99997.00;;;;347311;28;91142;-87
2022/04/16 00:57:00;;;;;;;;;;;16.50;84.80;16.60;99996.00;;;;349003;28;94552;-87
2022/04/16 00:57:12;;;;;;;;;;;16.50;84.70;16.70;99996.00;;;;348776;28;91019;-87
2022/04/16 00:57:23;;;;;;;;;;;16.50;84.70;16.70;99996.00;;;;347536;28;92649;-87
2022/04/16 00:57:39;;;;;;;;;;;16.50;84.70;16.70;99999.00;;;;347216;28;91248;-87
2022/04/16 00:57:51;;;;;;;;;;;16.50;84.70;16.70;99998.00;;;;348843;28;94921;-86
2022/04/16 00:58:03;;;;;;;;;;;16.50;84.80;16.80;100002.00;;;;349779;27;90336;-87
2022/04/16 00:58:15;;;;;;;;;;;16.50;84.80;16.70;99994.00;;;;351028;27;91373;-87
2022/04/16 00:58:27;;;;;;;;;;;16.50;84.80;16.70;99986.00;;;;349810;27;91056;-87
2022/04/16 00:58:40;;;;;;;;;;;16.50;84.70;16.70;99995.00;;;;347034;28;94667;-87
2022/04/16 00:58:52;;;;;;;;;;;16.50;84.90;16.70;99997.00;;;;348215;28;91086;-87
2022/04/16 00:59:07;;;;;;;;;;;16.50;84.90;16.60;99997.00;;;;346528;28;93795;-87
2022/04/16 00:59:18;;;;;;;;;;;16.50;84.90;16.70;99990.00;;;;346763;28;91994;-87
2022/04/16 00:59:30;;;;;;;;;;;16.50;84.90;16.70;99996.00;;;;344570;28;94602;-87
2022/04/16 00:59:42;;;;;;;;;;;16.50;84.90;16.70;100002.00;;;;347195;28;91233;-87
2022/04/16 00:59:54;;;;;;;;;;;16.50;84.90;16.70;100001.00;;;;347529;28;95586;-88
2022/04/16 01:00:07;;;;;;;;;;;16.50;84.90;16.70;99999.00;;;;345656;28;91277;-87
2022/04/16 01:00:18;;;;;;;;;;;16.50;85.10;16.70;99997.00;;;;347184;28;95095;-87
2022/04/16 01:00:30;;;;;;;;;;;16.50;85.00;16.70;99990.00;;;;348441;27;92048;-87
2022/04/16 01:00:42;;;;;;;;;;;16.50;85.10;16.80;99990.00;;;;347327;28;93234;-87
2022/04/16 01:00:54;;;;;;;;;;;16.50;85.10;16.80;99998.00;;;;347124;28;91959;-87